Flight Number: EUR1092 Duration: 1:30
Departure: Milano Linate (LIML) at 08:30 Distance: 510 Nm
Arrival: Gatwick Airport (EGKK) at 10:00 Equipment: MD-81

Weather Information
Milano / Linate, Italy (LIML) 45-26N 009-17E 103M Jan 23, 2018 - 04:20 AM EST / 2018.01.23 0920 UTC
Wind: Calm:0
Visibility: 4 mile(s):0 Temperature: 42 F (6 C) Dew Point: 33 F (1 C) Relative Humidity: 70% Pressure (altimeter): 30.18 in. Hg (1022 hPa)
ob: LIML 230920Z 00000KT 8000 NSC 06/01 Q1022 NOSIG cycle: 9
Sunrise: 06:56 Sunset: 16:13 (UTC)

London / Gatwick Airport, United Kingdom (EGKK) 51-09N 000-11W 0M Jan 23, 2018 - 04:20 AM EST / 2018.01.23 0920 UTC
Wind: from the SSW (200 degrees) at 10 MPH (9 KT):0
Visibility: 2 mile(s):0
Sky conditions: overcast Weather: drizzle; mist Temperature: 48 F (9 C) Dew Point: 48 F (9 C) Relative Humidity: 100% Pressure (altimeter): 30.00 in. Hg (1016 hPa)
ob: EGKK 230920Z 20009KT 3500 DZ BR OVC004 09/09 Q1016 cycle: 9
Sunrise: 07:53 Sunset: 16:31 (UTC)

TAF:2018/01/23 06:47 TAF EGKK 230500Z 2306/2412 21010KT 9999 SCT030 BECMG 2306/2308 BKN012 TEMPO 2307/2403 7000 -RA BKN008 PROB40 TEMPO 2307/2314 3000 RADZ BKN004 PROB30 TEMPO 2312/2324 24015G25KT PROB30 TEMPO 2314/2317 BKN018 PROB30 TEMPO 2317/2324 3000 RADZ BKN004 BECMG 2400/2403 20015G25KT TEMPO 2403/2412 20025G38KT 4000 RADZ BKN006

Previous Pireps for this route
Date Aircraft Flight time Fuel used Landing rate On time
2012-08-27MD-8102.2112000-349No
2012-09-23MD-8102.0713658-164No
2012-12-14A32101.4810598-234Yes
2013-03-06A3211.328957-74No
2013-09-02A3211.35117810No
2014-01-02A32101.3910325-265Yes
2014-10-15MD-8101.3510888-386Yes
2015-05-25A32101.5911235-231Yes
2015-08-10MD-8101.3710852-234Yes
2016-03-12MD-8101.4011151-204Yes
2016-10-16MD-811.40120520Charter
2017-08-26MD-812.2890620Charter
2017-08-26MD-812.2890620Charter
(pireps marked green are flown by you)

Route map